createdAt,value
2018-08-04T00:00:31.787Z,97136.17
2018-08-04T00:05:26.482Z,97128.48
2018-08-04T00:10:22.086Z,97132.22
2018-08-04T00:15:17.000Z,97127.67
2018-08-04T00:20:11.629Z,97140.86
2018-08-04T00:25:06.415Z,97138.09
2018-08-04T00:30:01.052Z,97133.14
2018-08-04T00:34:55.678Z,97140.23
2018-08-04T00:39:50.472Z,97131.89
2018-08-04T00:44:45.127Z,97133.20
2018-08-04T00:49:39.778Z,97131.98
2018-08-04T00:54:34.345Z,97131.80
2018-08-04T00:59:28.976Z,97135.37
2018-08-04T01:04:23.666Z,97128.00
2018-08-04T01:09:18.266Z,97136.34
2018-08-04T01:14:12.879Z,97134.87
2018-08-04T01:19:07.493Z,97137.02
2018-08-04T01:24:02.033Z,97134.89
2018-08-04T01:28:57.525Z,97136.52
2018-08-04T01:33:52.126Z,97147.58
2018-08-04T01:38:46.752Z,97140.48
2018-08-04T01:43:41.382Z,97140.20
2018-08-04T01:48:36.033Z,97137.77
2018-08-04T01:53:30.722Z,97132.31
2018-08-04T01:58:25.315Z,97131.20
2018-08-04T02:03:19.923Z,97130.14
2018-08-04T02:08:14.526Z,97129.68
2018-08-04T02:13:09.193Z,97127.63
2018-08-04T02:18:03.804Z,97121.13
2018-08-04T02:22:58.396Z,97121.09
2018-08-04T02:27:52.695Z,97120.10
2018-08-04T02:32:47.265Z,97131.09
2018-08-04T02:37:41.959Z,97123.02
2018-08-04T02:42:36.594Z,97118.92
2018-08-04T02:47:31.170Z,97121.84
2018-08-04T02:52:26.089Z,97124.73
2018-08-04T02:57:20.704Z,97122.69
2018-08-04T03:02:15.369Z,97121.04
2018-08-04T03:07:10.275Z,97133.08
2018-08-04T03:12:05.329Z,97129.08
2018-08-04T03:16:59.880Z,97132.83
2018-08-04T03:21:54.538Z,97136.18
2018-08-04T03:26:49.142Z,97143.42
2018-08-04T03:31:43.784Z,97142.08
2018-08-04T03:36:38.934Z,97150.20
2018-08-04T03:41:33.592Z,97152.79
2018-08-04T03:46:28.180Z,97153.55
2018-08-04T03:51:22.766Z,97154.53
2018-08-04T03:56:17.379Z,97161.94
2018-08-04T04:01:11.988Z,97159.86
2018-08-04T04:06:06.724Z,97160.06
2018-08-04T04:11:01.354Z,97162.91
2018-08-04T04:15:56.034Z,97161.55
2018-08-04T04:20:50.682Z,97173.27
2018-08-04T04:25:45.304Z,97173.30
2018-08-04T04:30:39.892Z,97172.16
2018-08-04T04:35:34.549Z,97175.51
2018-08-04T04:40:29.197Z,97180.06
2018-08-04T04:45:23.779Z,97188.77
2018-08-04T04:50:18.399Z,97189.88
2018-08-04T04:55:13.018Z,97190.40
2018-08-04T05:00:07.691Z,97193.32
2018-08-04T05:05:02.295Z,97182.43
2018-08-04T05:09:57.412Z,97182.73
2018-08-04T05:14:51.982Z,97172.78
2018-08-04T05:19:46.601Z,97189.70
2018-08-04T05:24:41.209Z,97192.61
2018-08-04T05:29:35.975Z,97191.28
2018-08-04T05:34:30.599Z,97198.86
2018-08-04T05:39:25.249Z,97213.85
2018-08-04T05:44:19.934Z,97212.20
2018-08-04T05:49:14.551Z,97212.45
2018-08-04T05:54:08.844Z,97217.34
2018-08-04T05:59:03.445Z,97219.48
2018-08-04T06:03:58.053Z,97216.70
2018-08-04T06:08:52.754Z,97223.38
2018-08-04T06:13:47.916Z,97221.61
2018-08-04T06:18:43.950Z,97226.67
2018-08-04T06:23:38.526Z,97220.88
2018-08-04T06:28:33.163Z,97225.28
2018-08-04T06:33:27.755Z,97226.41
2018-08-04T06:38:22.379Z,97220.55
2018-08-04T06:43:17.013Z,97220.54
2018-08-04T06:48:11.631Z,97212.91
2018-08-04T06:53:06.335Z,97219.23
2018-08-04T06:58:00.978Z,97210.67
2018-08-04T07:02:55.670Z,97215.92
2018-08-04T07:07:50.291Z,97217.24
2018-08-04T07:12:44.970Z,97206.22
2018-08-04T07:17:39.548Z,97207.68
2018-08-04T07:22:34.238Z,97208.31
2018-08-04T07:27:28.919Z,97201.58
2018-08-04T07:32:23.507Z,97209.64
2018-08-04T07:37:17.790Z,97212.94
2018-08-04T07:42:12.429Z,97216.02
2018-08-04T07:47:07.151Z,97211.56
2018-08-04T07:52:02.428Z,97212.44
2018-08-04T07:56:57.212Z,97211.44
2018-08-04T08:01:51.930Z,97210.47
2018-08-04T08:06:46.546Z,97210.06
2018-08-04T08:11:41.214Z,97207.34
2018-08-04T08:16:35.792Z,97203.02
2018-08-04T08:21:30.475Z,97205.55
2018-08-04T08:26:25.069Z,97201.19
2018-08-04T08:31:19.931Z,97193.46
2018-08-04T08:36:14.570Z,97203.86
2018-08-04T08:41:10.059Z,97197.03
2018-08-04T08:46:04.417Z,97194.20
2018-08-04T08:50:59.067Z,97193.23
2018-08-04T08:55:53.983Z,97195.66
2018-08-04T09:00:48.345Z,97191.38
2018-08-04T09:05:43.017Z,97192.77
2018-08-04T09:10:37.664Z,97189.77
2018-08-04T09:15:32.327Z,97192.17
2018-08-04T09:20:28.370Z,97191.51
2018-08-04T09:25:23.509Z,97187.56
2018-08-04T09:30:18.102Z,97185.39
2018-08-04T09:35:13.896Z,97190.34
2018-08-04T09:40:11.894Z,97191.53
2018-08-04T09:45:08.192Z,97189.34
2018-08-04T09:50:02.842Z,97191.03
2018-08-04T09:54:57.453Z,97184.97
2018-08-04T09:59:52.153Z,97183.59
2018-08-04T10:04:46.759Z,97171.81
2018-08-04T10:09:41.371Z,97160.97
2018-08-04T10:14:35.964Z,97147.56
2018-08-04T10:19:30.552Z,97139.44
2018-08-04T10:24:25.133Z,97143.33
2018-08-04T10:29:19.748Z,97144.45
2018-08-04T10:34:14.320Z,97155.90
2018-08-04T10:39:10.377Z,97152.21
2018-08-04T10:44:05.097Z,97144.55
2018-08-04T10:48:59.728Z,97138.10
2018-08-04T10:53:54.438Z,97132.25
2018-08-04T10:58:48.999Z,97138.47
2018-08-04T11:03:46.520Z,97135.48
2018-08-04T11:08:41.146Z,97146.09
2018-08-04T11:13:35.746Z,97136.49
2018-08-04T11:18:30.368Z,97129.27
2018-08-04T11:23:24.958Z,97132.05
2018-08-04T11:28:19.509Z,97126.58
2018-08-04T11:33:13.778Z,97132.27
2018-08-04T11:38:08.347Z,97121.38
2018-08-04T11:43:02.944Z,97119.20
2018-08-04T11:47:57.551Z,97118.37
2018-08-04T11:52:52.451Z,97118.35
2018-08-04T11:57:47.064Z,97129.00
2018-08-04T12:02:41.339Z,97125.55
2018-08-04T12:07:35.974Z,97138.10
2018-08-04T12:12:30.615Z,97157.31
2018-08-04T12:17:25.385Z,97143.53
2018-08-04T12:22:21.626Z,97134.51
2018-08-04T12:27:16.271Z,97113.86
2018-08-04T12:32:10.889Z,97104.33
2018-08-04T12:37:05.569Z,97100.36
2018-08-04T12:42:00.197Z,97102.65
2018-08-04T12:46:54.815Z,97102.09
2018-08-04T12:51:49.493Z,97104.22
2018-08-04T12:56:44.100Z,97095.47
2018-08-04T13:01:38.730Z,97100.09
2018-08-04T13:06:33.813Z,97085.19
2018-08-04T13:11:28.429Z,97083.87
2018-08-04T13:16:23.089Z,97083.22
2018-08-04T13:21:17.738Z,97075.66
2018-08-04T13:26:12.328Z,97072.47
2018-08-04T13:31:06.959Z,97065.94
2018-08-04T13:36:01.583Z,97070.89
2018-08-04T13:40:59.593Z,97071.70
2018-08-04T13:45:54.367Z,97071.90
2018-08-04T13:50:49.138Z,97065.50
2018-08-04T13:55:43.896Z,97069.23
2018-08-04T14:00:38.743Z,97070.57
2018-08-04T14:05:33.640Z,97077.71
2018-08-04T14:10:28.417Z,97078.50
2018-08-04T14:15:22.788Z,97077.68
2018-08-04T14:20:17.523Z,97073.09
2018-08-04T14:25:25.123Z,97074.17
2018-08-04T14:30:19.840Z,97065.36
2018-08-04T14:35:14.512Z,97063.59
2018-08-04T14:40:09.372Z,97059.20
2018-08-04T14:45:04.232Z,97052.58
2018-08-04T14:49:58.990Z,97039.91
2018-08-04T14:54:53.752Z,97036.42
2018-08-04T14:59:48.535Z,97046.45
2018-08-04T15:04:43.419Z,97048.32
2018-08-04T15:09:38.011Z,97047.77
2018-08-04T15:14:32.707Z,97056.41
2018-08-04T15:19:27.821Z,97050.52
2018-08-04T15:24:22.630Z,97047.09
2018-08-04T15:29:19.048Z,97047.20
2018-08-04T15:34:13.918Z,97042.35
2018-08-04T15:39:10.316Z,97041.66
2018-08-04T15:44:04.907Z,97037.84
2018-08-04T15:48:59.624Z,97030.05
2018-08-04T15:53:54.401Z,97036.76
2018-08-04T15:58:49.188Z,97029.98
2018-08-04T16:03:44.206Z,97024.96
2018-08-04T16:08:39.252Z,97026.64
2018-08-04T16:13:34.223Z,97025.84
2018-08-04T16:18:29.086Z,97020.13
2018-08-04T16:23:23.820Z,97025.92
2018-08-04T16:28:18.748Z,97022.89
2018-08-04T16:33:13.584Z,97026.78
2018-08-04T16:38:08.276Z,97036.79
2018-08-04T16:43:02.998Z,97044.44
2018-08-04T16:47:57.707Z,97036.67
2018-08-04T16:52:52.441Z,97040.73
2018-08-04T16:57:47.222Z,97046.44
2018-08-04T17:02:42.361Z,97036.98
2018-08-04T17:07:37.288Z,97040.77
2018-08-04T17:12:32.211Z,97038.91
2018-08-04T17:17:27.008Z,97035.42
2018-08-04T17:22:21.785Z,97047.67
2018-08-04T17:27:25.478Z,97051.58
2018-08-04T17:32:21.176Z,97053.72
2018-08-04T17:37:15.933Z,97054.62
2018-08-04T17:42:10.651Z,97046.91
2018-08-04T17:47:05.499Z,97045.50
2018-08-04T17:52:00.320Z,97059.18
2018-08-04T17:56:55.184Z,97058.15
2018-08-04T18:01:50.791Z,97054.98
2018-08-04T18:06:45.647Z,97060.95
2018-08-04T18:11:40.860Z,97066.95
2018-08-04T18:16:35.868Z,97069.86
2018-08-04T18:21:30.929Z,97068.58
2018-08-04T18:26:25.701Z,97077.45
2018-08-04T18:31:20.468Z,97078.75
2018-08-04T18:36:15.342Z,97080.56
2018-08-04T18:41:10.132Z,97088.91
2018-08-04T18:46:04.933Z,97095.27
2018-08-04T18:50:59.834Z,97091.16
2018-08-04T18:55:54.739Z,97098.39
2018-08-04T19:00:49.511Z,97103.50
2018-08-04T19:05:44.383Z,97098.66
2018-08-04T19:10:39.171Z,97109.54
2018-08-04T19:15:34.065Z,97106.83
2018-08-04T19:20:28.959Z,97110.38
2018-08-04T19:25:24.727Z,97108.41
2018-08-04T19:30:19.517Z,97112.26
2018-08-04T19:35:14.268Z,97107.62
2018-08-04T19:40:09.255Z,97114.05
2018-08-04T19:45:04.259Z,97111.53
2018-08-04T19:49:59.113Z,97118.06
2018-08-04T19:54:54.261Z,97121.33
2018-08-04T19:59:49.851Z,97121.76
2018-08-04T20:04:44.709Z,97123.83
2018-08-04T20:09:39.667Z,97126.45
2018-08-04T20:14:34.558Z,97123.27
2018-08-04T20:19:29.399Z,97125.95
2018-08-04T20:24:24.204Z,97120.74
2018-08-04T20:29:19.234Z,97124.82
2018-08-04T20:34:14.105Z,97126.17
2018-08-04T20:39:10.723Z,97121.63
2018-08-04T20:44:05.664Z,97125.22
2018-08-04T20:49:00.464Z,97126.46
2018-08-04T20:53:55.263Z,97127.13
2018-08-04T20:58:50.239Z,97131.26
2018-08-04T21:03:45.131Z,97136.25
2018-08-04T21:08:39.939Z,97133.41
2018-08-04T21:13:34.748Z,97134.94
2018-08-04T21:18:29.645Z,97126.80
2018-08-04T21:23:24.439Z,97133.11
2018-08-04T21:28:20.032Z,97131.05
2018-08-04T21:33:14.973Z,97124.02
2018-08-04T21:38:09.736Z,97125.63
2018-08-04T21:43:04.554Z,97122.94
2018-08-04T21:47:59.319Z,97126.06
2018-08-04T21:52:55.807Z,97122.84
2018-08-04T21:57:50.639Z,97120.57
2018-08-04T22:02:58.967Z,97117.50
2018-08-04T22:08:11.566Z,97116.36
2018-08-04T22:13:06.813Z,97123.94
2018-08-04T22:18:01.727Z,97114.81
2018-08-04T22:22:56.244Z,97118.11
2018-08-04T22:27:51.310Z,97125.28
2018-08-04T22:32:46.596Z,97126.76
2018-08-04T22:37:41.922Z,97122.12
2018-08-04T22:42:37.925Z,97130.95
2018-08-04T22:47:32.834Z,97131.00
2018-08-04T22:52:27.842Z,97128.31
2018-08-04T22:57:22.607Z,97130.91
2018-08-04T23:02:17.317Z,97128.92
2018-08-04T23:07:12.123Z,97134.52
2018-08-04T23:12:07.004Z,97138.19
2018-08-04T23:17:02.018Z,97137.66
2018-08-04T23:21:56.808Z,97137.02
2018-08-04T23:26:52.042Z,97140.30
2018-08-04T23:31:47.129Z,97143.92
2018-08-04T23:36:41.910Z,97146.47
2018-08-04T23:41:36.832Z,97147.14
2018-08-04T23:46:31.338Z,97140.55
2018-08-04T23:51:26.934Z,97143.75
2018-08-04T23:56:21.812Z,97150.55
